Ahwahnee, California
Current Conditions -  °F | °C
As of 12:53 AM on Thursday 18 Dec 2014 (Local Time) from KMAE Reporting Station
Overcast Overcast  
Wind Chill: 10°   Ceiling: 7500
Heat Index: 10°   Visibility: 8mi
Dew Point:   Wind: 9mph
Humidity: 86%   Direction: 110°ESE
Pressure: 30.13"   Gusts: NA
Location:  37.37°N, 119.73°W
Report Text: KMAE 180853Z AUTO 11008KT 8SM OVC075 10/08 A3013 RMK AO2 SLP202 T01000078 58003
Loading
Personal Weather Stations






























Interactive Weather Map New forecast layout! Learn more

10-Day Weather Forecast

Advertisements
Track Severe Weather on mobile